createdAt,value
2023-09-17T00:00:00.570Z,95603.56
2023-09-17T00:01:02.857Z,95611.16
2023-09-17T00:02:06.233Z,95608.13
2023-09-17T00:03:09.186Z,95604.59
2023-09-17T00:04:12.380Z,95605.84
2023-09-17T00:05:14.557Z,95604.31
2023-09-17T00:06:18.198Z,95604.31
2023-09-17T00:07:21.514Z,95602.28
2023-09-17T00:08:24.847Z,95605.84
2023-09-17T00:09:26.762Z,95609.13
2023-09-17T00:10:29.802Z,95598.00
2023-09-17T00:11:31.837Z,95608.38
2023-09-17T00:12:34.747Z,95596.44
2023-09-17T00:13:36.840Z,95594.94
2023-09-17T00:14:39.787Z,95604.56
2023-09-17T00:15:41.780Z,95608.59
2023-09-17T00:16:43.948Z,95603.03
2023-09-17T00:17:47.040Z,95601.53
2023-09-17T00:18:49.015Z,95601.53
2023-09-17T00:19:51.944Z,95605.53
2023-09-17T00:20:53.814Z,95609.59
2023-09-17T00:21:56.721Z,95605.53
2023-09-17T00:23:01.750Z,95606.06
2023-09-17T00:24:05.054Z,95609.59
2023-09-17T00:25:07.551Z,95610.84
2023-09-17T00:26:10.414Z,95603.75
2023-09-17T00:27:14.730Z,95611.84
2023-09-17T00:28:18.136Z,95608.31
2023-09-17T00:29:20.018Z,95612.34
2023-09-17T00:30:34.861Z,95611.56
2023-09-17T00:31:38.754Z,95604.50
2023-09-17T00:32:43.115Z,95606.50
2023-09-17T00:33:45.754Z,95605.25
2023-09-17T00:34:48.965Z,95607.28
2023-09-17T00:35:50.855Z,95606.50
2023-09-17T00:36:53.684Z,95607.78
2023-09-17T00:37:55.592Z,95599.88
2023-09-17T00:38:59.846Z,95607.03
2023-09-17T00:40:02.436Z,95597.88
2023-09-17T00:41:05.391Z,95611.00
2023-09-17T00:42:07.744Z,95606.22
2023-09-17T00:43:10.757Z,95601.16
2023-09-17T00:44:12.833Z,95603.94
2023-09-17T00:45:17.548Z,95604.69
2023-09-17T00:46:20.971Z,95609.50
2023-09-17T00:47:24.466Z,95606.44
2023-09-17T00:48:27.490Z,95603.66
2023-09-17T00:49:30.800Z,95604.16
2023-09-17T00:50:33.619Z,95600.63
2023-09-17T00:51:36.525Z,95604.94
2023-09-17T00:52:39.587Z,95601.34
2023-09-17T00:53:44.002Z,95598.16
2023-09-17T00:54:49.172Z,95593.75
2023-09-17T00:55:52.779Z,95595.03
2023-09-17T00:56:55.257Z,95596.53
2023-09-17T00:57:59.595Z,95598.09
2023-09-17T00:59:04.770Z,95597.56
2023-09-17T01:00:10.753Z,95598.84
2023-09-17T01:01:14.350Z,95599.59
2023-09-17T01:02:19.313Z,95598.09
2023-09-17T01:03:22.662Z,95600.09
2023-09-17T01:04:25.852Z,95602.88
2023-09-17T01:05:37.963Z,95596.06
2023-09-17T01:06:41.065Z,95599.31
2023-09-17T01:07:44.546Z,95602.09
2023-09-17T01:08:47.925Z,95595.78
2023-09-17T01:09:51.873Z,95597.03
2023-09-17T01:10:59.169Z,95595.78
2023-09-17T01:12:02.584Z,95600.59
2023-09-17T01:13:06.506Z,95600.59
2023-09-17T01:14:16.547Z,95602.34
2023-09-17T01:15:20.261Z,95590.44
2023-09-17T01:16:24.994Z,95601.56
2023-09-17T01:17:28.544Z,95600.81
2023-09-17T01:18:30.763Z,95604.88
2023-09-17T01:19:33.776Z,95594.97
2023-09-17T01:20:44.080Z,95601.06
2023-09-17T01:21:53.684Z,95600.28
2023-09-17T01:23:00.432Z,95600.28
2023-09-17T01:24:23.090Z,95599.53
2023-09-17T01:25:35.685Z,95598.75
2023-09-17T01:26:42.149Z,95598.75
2023-09-17T01:27:45.912Z,95597.22
2023-09-17T01:28:48.989Z,95598.50
2023-09-17T01:29:51.775Z,95597.22
2023-09-17T01:30:54.623Z,95606.84
2023-09-17T01:31:56.780Z,95596.47
2023-09-17T01:33:02.506Z,95592.94
2023-09-17T01:34:04.879Z,95589.41
2023-09-17T01:35:08.816Z,95598.50
2023-09-17T01:36:17.654Z,95592.19
2023-09-17T01:37:25.427Z,95594.22
2023-09-17T01:38:33.553Z,95590.63
2023-09-17T01:39:43.041Z,95585.84
2023-09-17T01:40:49.464Z,95585.59
2023-09-17T01:41:52.918Z,95586.34
2023-09-17T01:42:58.168Z,95590.38
2023-09-17T01:44:01.431Z,95586.84
2023-09-17T01:45:06.665Z,95585.31
2023-09-17T01:46:10.747Z,95594.16
2023-09-17T01:47:13.133Z,95585.06
2023-09-17T01:48:16.863Z,95584.28
2023-09-17T01:49:20.964Z,95583.50
2023-09-17T01:50:26.011Z,95580.72
2023-09-17T01:51:30.924Z,95583.50
2023-09-17T01:52:34.172Z,95587.56
2023-09-17T01:53:37.645Z,95592.38
2023-09-17T01:54:39.781Z,95591.63
2023-09-17T01:55:44.106Z,95593.63
2023-09-17T01:56:46.193Z,95594.13
2023-09-17T01:57:49.921Z,95596.91
2023-09-17T01:58:53.430Z,95592.59
2023-09-17T01:59:56.414Z,95588.28
2023-09-17T02:00:58.529Z,95592.31
2023-09-17T02:02:00.689Z,95594.34
2023-09-17T02:03:04.895Z,95594.34
2023-09-17T02:04:06.918Z,95602.69
2023-09-17T02:05:11.812Z,95599.63
2023-09-17T02:06:14.936Z,95600.16
2023-09-17T02:07:18.454Z,95596.09
2023-09-17T02:08:21.422Z,95594.59
2023-09-17T02:09:23.460Z,95594.59
2023-09-17T02:10:26.378Z,95594.59
2023-09-17T02:11:29.096Z,95592.28
2023-09-17T02:12:31.976Z,95593.81
2023-09-17T02:13:34.076Z,95595.81
2023-09-17T02:14:39.445Z,95588.75
2023-09-17T02:15:42.357Z,95591.53
2023-09-17T02:16:45.602Z,95596.31
2023-09-17T02:17:47.595Z,95590.00
2023-09-17T02:18:52.090Z,95597.09
2023-09-17T02:19:53.986Z,95595.56
2023-09-17T02:20:56.877Z,95604.38
2023-09-17T02:21:58.704Z,95599.59
2023-09-17T02:23:01.883Z,95605.16
2023-09-17T02:24:04.302Z,95602.38
2023-09-17T02:25:08.093Z,95609.19
2023-09-17T02:26:10.025Z,95607.69
2023-09-17T02:27:12.927Z,95605.66
2023-09-17T02:28:14.892Z,95603.34
2023-09-17T02:29:17.877Z,95611.69
2023-09-17T02:30:21.521Z,95608.66
2023-09-17T02:31:25.283Z,95612.69
2023-09-17T02:32:27.556Z,95611.19
2023-09-17T02:33:31.041Z,95607.13
2023-09-17T02:34:33.148Z,95612.69
2023-09-17T02:35:36.183Z,95617.50
2023-09-17T02:36:39.149Z,95618.72
2023-09-17T02:37:42.250Z,95620.75
2023-09-17T02:38:44.520Z,95619.25
2023-09-17T02:39:47.597Z,95619.25
2023-09-17T02:40:49.626Z,95612.16
2023-09-17T02:41:53.416Z,95618.47
2023-09-17T02:42:55.388Z,95623.25
2023-09-17T02:44:00.297Z,95621.75
2023-09-17T02:45:06.144Z,95618.22
2023-09-17T02:46:10.422Z,95614.66
2023-09-17T02:47:12.467Z,95621.75
2023-09-17T02:48:15.716Z,95621.75
2023-09-17T02:49:18.035Z,95620.22
2023-09-17T02:50:21.786Z,95618.69
2023-09-17T02:51:23.776Z,95621.00
2023-09-17T02:52:27.965Z,95624.25
2023-09-17T02:53:29.979Z,95618.69
2023-09-17T02:54:33.115Z,95613.13
2023-09-17T02:55:35.644Z,95617.16
2023-09-17T02:56:39.317Z,95622.72
2023-09-17T02:57:41.192Z,95628.28
2023-09-17T02:58:47.156Z,95625.50
2023-09-17T02:59:50.048Z,95639.41
2023-09-17T03:00:53.222Z,95635.09
2023-09-17T03:01:56.783Z,95635.09
2023-09-17T03:02:59.779Z,95634.34
2023-09-17T03:04:01.850Z,95631.56
2023-09-17T03:05:05.094Z,95626.78
2023-09-17T03:06:09.487Z,95631.56
2023-09-17T03:07:12.837Z,95630.81
2023-09-17T03:08:16.030Z,95626.78
2023-09-17T03:09:23.185Z,95626.00
2023-09-17T03:10:27.364Z,95630.81
2023-09-17T03:11:31.837Z,95626.78
2023-09-17T03:12:36.518Z,95639.41
2023-09-17T03:13:41.173Z,95632.31
2023-09-17T03:14:43.128Z,95631.56
2023-09-17T03:15:46.656Z,95637.88
2023-09-17T03:16:49.642Z,95628.78
2023-09-17T03:17:56.482Z,95622.47
2023-09-17T03:18:58.363Z,95621.69
2023-09-17T03:20:01.209Z,95631.56
2023-09-17T03:21:06.258Z,95633.59
2023-09-17T03:22:09.493Z,95636.38
2023-09-17T03:23:12.627Z,95632.06
2023-09-17T03:24:17.968Z,95637.34
2023-09-17T03:25:20.107Z,95635.81
2023-09-17T03:26:26.299Z,95633.03
2023-09-17T03:27:28.238Z,95629.50
2023-09-17T03:28:31.774Z,95637.06
2023-09-17T03:29:33.895Z,95639.09
2023-09-17T03:30:36.751Z,95638.34
2023-09-17T03:31:42.436Z,95632.78
2023-09-17T03:33:01.917Z,95638.34
2023-09-17T03:34:09.451Z,95628.72
2023-09-17T03:35:13.063Z,95635.56
2023-09-17T03:36:16.060Z,95628.72
2023-09-17T03:37:18.316Z,95631.50
2023-09-17T03:38:20.378Z,95631.50
2023-09-17T03:39:23.531Z,95633.03
2023-09-17T03:40:25.883Z,95636.59
2023-09-17T03:41:28.979Z,95628.72
2023-09-17T03:42:30.923Z,95631.50
2023-09-17T03:43:35.830Z,95634.28
2023-09-17T03:44:37.817Z,95634.28
2023-09-17T03:45:39.826Z,95631.50
2023-09-17T03:46:42.981Z,95625.66
2023-09-17T03:47:45.595Z,95628.44
2023-09-17T03:48:48.889Z,95628.22
2023-09-17T03:49:52.183Z,95628.22
2023-09-17T03:50:55.150Z,95640.56
2023-09-17T03:51:57.121Z,95637.78
2023-09-17T03:53:04.347Z,95640.09
2023-09-17T03:54:06.510Z,95645.38
2023-09-17T03:55:10.711Z,95641.03
2023-09-17T03:56:13.172Z,95641.31
2023-09-17T03:57:15.218Z,95635.00
2023-09-17T03:58:18.335Z,95641.84
2023-09-17T03:59:20.799Z,95640.56
2023-09-17T04:00:25.158Z,95646.88
2023-09-17T04:01:27.249Z,95637.78
2023-09-17T04:02:30.247Z,95637.78
2023-09-17T04:03:33.254Z,95642.59
2023-09-17T04:04:36.189Z,95640.56
2023-09-17T04:05:39.662Z,95637.03
2023-09-17T04:06:42.607Z,95637.31
2023-09-17T04:07:46.169Z,95637.03
2023-09-17T04:08:49.306Z,95636.28
2023-09-17T04:09:51.274Z,95635.00
2023-09-17T04:10:55.888Z,95631.94
2023-09-17T04:12:03.697Z,95628.41
2023-09-17T04:13:07.952Z,95634.72
2023-09-17T04:14:09.972Z,95629.69
2023-09-17T04:15:17.763Z,95630.91
2023-09-17T04:16:24.543Z,95624.59
2023-09-17T04:17:28.731Z,95631.41
2023-09-17T04:18:31.696Z,95629.41
2023-09-17T04:19:35.211Z,95633.44
2023-09-17T04:20:37.337Z,95634.19
2023-09-17T04:21:40.611Z,95635.72
2023-09-17T04:22:44.415Z,95634.69
2023-09-17T04:23:46.557Z,95643.03
2023-09-17T04:24:50.991Z,95635.16
2023-09-17T04:25:55.203Z,95641.47
2023-09-17T04:26:58.847Z,95639.97
2023-09-17T04:28:00.857Z,95645.22
2023-09-17T04:29:05.908Z,95643.22
2023-09-17T04:30:08.739Z,95647.25
2023-09-17T04:31:12.073Z,95644.94
2023-09-17T04:32:14.173Z,95637.88
2023-09-17T04:33:17.467Z,95632.31
2023-09-17T04:34:19.620Z,95643.44
2023-09-17T04:35:22.682Z,95642.66
2023-09-17T04:36:25.028Z,95643.91
2023-09-17T04:37:28.434Z,95645.19
2023-09-17T04:38:33.497Z,95642.41
2023-09-17T04:39:35.380Z,95642.41
2023-09-17T04:40:38.471Z,95641.63
2023-09-17T04:41:44.038Z,95645.66
2023-09-17T04:42:48.565Z,95643.63
2023-09-17T04:43:55.107Z,95647.69
2023-09-17T04:44:58.879Z,95640.59
2023-09-17T04:46:01.801Z,95639.84
2023-09-17T04:47:08.756Z,95643.09
2023-09-17T04:48:11.663Z,95647.13
2023-09-17T04:49:15.701Z,95647.63
2023-09-17T04:50:17.778Z,95652.41
2023-09-17T04:51:22.194Z,95656.69
2023-09-17T04:52:28.932Z,95655.94
2023-09-17T04:53:32.502Z,95657.22
2023-09-17T04:54:34.468Z,95654.44
2023-09-17T04:55:40.588Z,95656.47
2023-09-17T04:56:42.581Z,95657.97
2023-09-17T04:57:45.503Z,95652.69
2023-09-17T04:58:50.063Z,95660.75
2023-09-17T04:59:53.145Z,95649.63
2023-09-17T05:00:55.273Z,95652.41
2023-09-17T05:01:58.841Z,95653.16
2023-09-17T05:03:01.571Z,95655.19
2023-09-17T05:04:05.125Z,95655.19
2023-09-17T05:05:09.686Z,95655.19
2023-09-17T05:06:12.636Z,95655.19
2023-09-17T05:07:16.030Z,95655.19
2023-09-17T05:08:20.666Z,95662.00
2023-09-17T05:09:23.697Z,95656.47
2023-09-17T05:10:27.195Z,95654.44
2023-09-17T05:11:30.774Z,95666.31
2023-09-17T05:12:33.739Z,95667.06
2023-09-17T05:13:36.124Z,95666.31
2023-09-17T05:14:40.378Z,95666.31
2023-09-17T05:15:45.975Z,95667.81
2023-09-17T05:16:48.984Z,95669.84
2023-09-17T05:17:51.435Z,95667.81
2023-09-17T05:18:55.205Z,95669.34
2023-09-17T05:19:57.102Z,95666.59
2023-09-17T05:21:02.943Z,95664.56
2023-09-17T05:22:04.953Z,95662.53
2023-09-17T05:23:09.755Z,95661.78
2023-09-17T05:24:13.284Z,95665.31
2023-09-17T05:25:16.588Z,95656.97
2023-09-17T05:26:22.270Z,95658.53
2023-09-17T05:27:25.792Z,95668.66
2023-09-17T05:28:28.901Z,95666.16
2023-09-17T05:29:31.065Z,95660.88
2023-09-17T05:30:35.609Z,95672.56
2023-09-17T05:31:37.669Z,95673.09
2023-09-17T05:32:39.784Z,95669.63
2023-09-17T05:33:42.720Z,95682.81
2023-09-17T05:34:45.448Z,95670.22
2023-09-17T05:35:49.508Z,95671.03
2023-09-17T05:36:51.471Z,95677.91
2023-09-17T05:37:54.431Z,95674.41
2023-09-17T05:38:58.347Z,95674.94
2023-09-17T05:40:02.637Z,95670.91
2023-09-17T05:41:05.045Z,95674.16
2023-09-17T05:42:08.317Z,95666.59
2023-09-17T05:43:10.406Z,95670.16
2023-09-17T05:44:14.314Z,95675.22
2023-09-17T05:45:16.802Z,95672.94
2023-09-17T05:46:19.762Z,95677.47
2023-09-17T05:47:22.045Z,95682.03
2023-09-17T05:48:25.359Z,95677.28
2023-09-17T05:49:27.273Z,95684.63
2023-09-17T05:50:30.348Z,95683.88
2023-09-17T05:51:32.387Z,95688.41
2023-09-17T05:52:35.284Z,95698.50
2023-09-17T05:53:37.522Z,95696.41
2023-09-17T05:54:40.550Z,95698.16
2023-09-17T05:55:44.624Z,95702.41
2023-09-17T05:56:47.457Z,95706.94
2023-09-17T05:57:50.276Z,95703.88
2023-09-17T05:58:53.245Z,95707.66
2023-09-17T05:59:55.153Z,95701.81
2023-09-17T06:00:58.047Z,95698.75
2023-09-17T06:02:00.523Z,95698.50
2023-09-17T06:03:04.242Z,95704.06
2023-09-17T06:04:10.220Z,95707.34
2023-09-17T06:05:13.210Z,95712.91
2023-09-17T06:06:20.186Z,95712.13
2023-09-17T06:07:23.381Z,95712.63
2023-09-17T06:08:29.277Z,95709.06
2023-09-17T06:09:34.557Z,95711.84
2023-09-17T06:10:39.522Z,95714.63
2023-09-17T06:11:42.848Z,95709.06
2023-09-17T06:12:48.551Z,95713.09
2023-09-17T06:13:50.660Z,95713.09
2023-09-17T06:14:53.806Z,95706.78
2023-09-17T06:15:55.970Z,95701.22
2023-09-17T06:16:58.979Z,95700.72
2023-09-17T06:18:01.308Z,95707.06
2023-09-17T06:19:04.537Z,95697.94
2023-09-17T06:20:07.836Z,95700.72
2023-09-17T06:21:10.791Z,95702.25
2023-09-17T06:22:12.700Z,95696.97
2023-09-17T06:23:15.691Z,95708.09
2023-09-17T06:24:20.152Z,95708.38
2023-09-17T06:25:24.425Z,95708.66
2023-09-17T06:26:26.483Z,95710.16
2023-09-17T06:27:31.377Z,95704.13
2023-09-17T06:28:35.190Z,95708.41
2023-09-17T06:29:38.155Z,95704.41
2023-09-17T06:30:40.156Z,95706.66
2023-09-17T06:31:43.746Z,95705.44
2023-09-17T06:32:46.640Z,95704.16
2023-09-17T06:33:50.094Z,95705.72
2023-09-17T06:34:52.441Z,95698.88
2023-09-17T06:35:55.711Z,95696.09
2023-09-17T06:36:57.984Z,95707.50
2023-09-17T06:38:01.126Z,95708.25
2023-09-17T06:39:05.634Z,95703.44
2023-09-17T06:40:11.736Z,95706.22
2023-09-17T06:41:15.585Z,95709.78
2023-09-17T06:42:18.942Z,95709.00
2023-09-17T06:43:22.276Z,95713.31
2023-09-17T06:44:26.474Z,95714.09
2023-09-17T06:45:31.443Z,95714.84
2023-09-17T06:46:34.626Z,95707.78
2023-09-17T06:47:36.772Z,95714.09
2023-09-17T06:48:39.848Z,95717.91
2023-09-17T06:49:41.790Z,95721.94
2023-09-17T06:50:46.881Z,95720.69
2023-09-17T06:51:50.145Z,95725.00
2023-09-17T06:52:53.171Z,95725.00
2023-09-17T06:53:55.083Z,95716.66
2023-09-17T06:54:57.929Z,95715.41
2023-09-17T06:56:00.571Z,95709.84
2023-09-17T06:57:03.497Z,95716.94
2023-09-17T06:58:05.491Z,95716.94
2023-09-17T06:59:09.811Z,95716.94
2023-09-17T07:00:12.603Z,95721.97
2023-09-17T07:01:15.505Z,95720.75
2023-09-17T07:02:18.130Z,95720.22
2023-09-17T07:03:21.078Z,95723.03
2023-09-17T07:04:23.214Z,95720.50
2023-09-17T07:05:26.535Z,95723.28
2023-09-17T07:06:28.612Z,95710.94
2023-09-17T07:07:31.716Z,95718.75
2023-09-17T07:08:33.798Z,95710.94
2023-09-17T07:09:36.757Z,95719.53
2023-09-17T07:10:38.669Z,95723.09
2023-09-17T07:11:41.519Z,95721.06
2023-09-17T07:12:44.629Z,95722.84
2023-09-17T07:13:47.584Z,95725.63
2023-09-17T07:14:50.838Z,95728.41
2023-09-17T07:15:53.911Z,95723.13
2023-09-17T07:16:55.865Z,95723.13
2023-09-17T07:17:58.823Z,95730.22
2023-09-17T07:19:00.822Z,95716.81
2023-09-17T07:20:05.484Z,95719.09
2023-09-17T07:21:07.379Z,95721.38
2023-09-17T07:22:13.678Z,95718.84
2023-09-17T07:23:15.720Z,95717.09
2023-09-17T07:24:18.999Z,95724.97
2023-09-17T07:25:21.139Z,95721.72
2023-09-17T07:26:24.016Z,95716.91
2023-09-17T07:27:26.961Z,95728.31
2023-09-17T07:28:30.699Z,95717.94
2023-09-17T07:29:32.995Z,95723.00
2023-09-17T07:30:38.058Z,95728.06
2023-09-17T07:31:42.683Z,95730.34
2023-09-17T07:32:45.832Z,95725.81
2023-09-17T07:33:47.867Z,95729.63
2023-09-17T07:34:50.832Z,95727.88
2023-09-17T07:35:53.775Z,95726.38
2023-09-17T07:36:56.754Z,95730.66
2023-09-17T07:37:58.746Z,95725.09
2023-09-17T07:39:01.702Z,95733.75
2023-09-17T07:40:08.553Z,95726.66
2023-09-17T07:41:11.557Z,95725.41
2023-09-17T07:42:14.188Z,95729.72
2023-09-17T07:43:19.141Z,95735.28
2023-09-17T07:44:21.511Z,95736.53
2023-09-17T07:45:24.416Z,95730.97
2023-09-17T07:46:27.724Z,95738.06
2023-09-17T07:47:30.946Z,95733.75
2023-09-17T07:48:33.005Z,95736.53
2023-09-17T07:49:37.608Z,95735.78
2023-09-17T07:50:41.178Z,95730.22
2023-09-17T07:51:44.086Z,95735.78
2023-09-17T07:52:46.521Z,95744.13
2023-09-17T07:53:49.925Z,95740.84
2023-09-17T07:54:52.034Z,95744.41
2023-09-17T07:55:57.174Z,95742.38
2023-09-17T07:56:59.199Z,95742.63
2023-09-17T07:58:02.064Z,95750.25
2023-09-17T07:59:04.664Z,95738.66
2023-09-17T08:00:09.734Z,95750.13
2023-09-17T08:01:18.086Z,95745.06
2023-09-17T08:02:22.413Z,95753.47
2023-09-17T08:03:24.763Z,95745.41
2023-09-17T08:04:26.902Z,95749.22
2023-09-17T08:05:29.817Z,95747.19
2023-09-17T08:06:35.615Z,95753.03
2023-09-17T08:07:38.560Z,95741.88
2023-09-17T08:08:40.523Z,95748.97
2023-09-17T08:09:43.406Z,95754.53
2023-09-17T08:10:45.543Z,95752.53
2023-09-17T08:11:51.814Z,95757.59
2023-09-17T08:12:53.746Z,95752.03
2023-09-17T08:13:56.708Z,95742.41
2023-09-17T08:14:58.783Z,95744.69
2023-09-17T08:16:01.686Z,95744.19
2023-09-17T08:17:07.401Z,95753.09
2023-09-17T08:18:12.324Z,95747.78
2023-09-17T08:19:14.315Z,95751.88
2023-09-17T08:20:17.833Z,95745.28
2023-09-17T08:21:19.936Z,95742.28
2023-09-17T08:22:23.653Z,95743.84
2023-09-17T08:23:26.655Z,95742.34
2023-09-17T08:24:29.568Z,95745.66
2023-09-17T08:25:31.932Z,95745.44
2023-09-17T08:26:43.692Z,95748.50
2023-09-17T08:27:48.083Z,95748.00
2023-09-17T08:28:51.196Z,95757.38
2023-09-17T08:29:53.228Z,95750.28
2023-09-17T08:30:59.126Z,95754.34
2023-09-17T08:32:01.034Z,95755.84
2023-09-17T08:33:10.951Z,95759.38
2023-09-17T08:34:14.489Z,95755.63
2023-09-17T08:35:17.542Z,95758.94
2023-09-17T08:36:22.824Z,95754.66
2023-09-17T08:37:25.882Z,95758.47
2023-09-17T08:38:27.957Z,95754.41
2023-09-17T08:39:31.377Z,95755.94
2023-09-17T08:40:35.651Z,95756.44
2023-09-17T08:41:41.330Z,95750.59
2023-09-17T08:42:44.094Z,95761.25
2023-09-17T08:43:48.099Z,95753.16
2023-09-17T08:44:52.231Z,95758.22
2023-09-17T08:45:56.425Z,95760.00
2023-09-17T08:46:59.105Z,95755.47
2023-09-17T08:48:02.281Z,95756.22
2023-09-17T08:49:04.306Z,95757.22
2023-09-17T08:50:12.969Z,95759.00
2023-09-17T08:51:19.330Z,95770.41
2023-09-17T08:52:24.272Z,95766.38
2023-09-17T08:53:32.247Z,95766.66
2023-09-17T08:54:41.000Z,95766.13
2023-09-17T08:55:48.036Z,95766.38
2023-09-17T08:56:52.925Z,95767.16
2023-09-17T08:57:58.706Z,95761.56
2023-09-17T08:59:08.214Z,95766.88
2023-09-17T09:00:16.459Z,95768.16
2023-09-17T09:01:21.862Z,95761.81
2023-09-17T09:02:30.193Z,95765.09
2023-09-17T09:03:36.673Z,95764.84
2023-09-17T09:04:39.819Z,95762.06
2023-09-17T09:05:45.702Z,95769.94
2023-09-17T09:06:48.023Z,95769.44
2023-09-17T09:07:53.225Z,95762.84
2023-09-17T09:08:56.008Z,95771.25
2023-09-17T09:09:59.818Z,95768.47
2023-09-17T09:11:02.311Z,95763.63
2023-09-17T09:12:21.929Z,95761.91
2023-09-17T09:13:24.312Z,95758.59
2023-09-17T09:14:27.690Z,95759.59
2023-09-17T09:15:30.601Z,95756.31
2023-09-17T09:16:37.696Z,95752.03
2023-09-17T09:17:40.293Z,95757.34
2023-09-17T09:18:43.258Z,95754.84
2023-09-17T09:19:45.181Z,95753.81
2023-09-17T09:20:49.469Z,95757.63
2023-09-17T09:21:51.322Z,95755.09
2023-09-17T09:22:54.394Z,95750.03
2023-09-17T09:23:58.424Z,95749.50
2023-09-17T09:25:01.848Z,95750.31
2023-09-17T09:26:05.083Z,95748.25
2023-09-17T09:27:11.573Z,95750.31
2023-09-17T09:28:13.520Z,95749.50
2023-09-17T09:29:16.615Z,95748.00
2023-09-17T09:30:19.112Z,95750.78
2023-09-17T09:31:22.089Z,95759.91
2023-09-17T09:32:24.794Z,95752.81
2023-09-17T09:33:28.178Z,95749.78
2023-09-17T09:34:30.307Z,95748.78
2023-09-17T09:35:33.360Z,95753.84
2023-09-17T09:36:37.302Z,95757.16
2023-09-17T09:37:42.693Z,95757.66
2023-09-17T09:38:44.689Z,95757.41
2023-09-17T09:39:47.833Z,95748.00
2023-09-17T09:40:49.907Z,95754.59
2023-09-17T09:41:52.928Z,95760.19
2023-09-17T09:42:54.879Z,95756.91
2023-09-17T09:43:58.736Z,95755.13
2023-09-17T09:45:00.777Z,95756.13
2023-09-17T09:46:05.573Z,95757.16
2023-09-17T09:47:09.033Z,95756.41
2023-09-17T09:48:15.541Z,95759.94
2023-09-17T09:49:18.177Z,95751.06
2023-09-17T09:50:25.023Z,95753.88
2023-09-17T09:51:28.527Z,95761.47
2023-09-17T09:52:32.972Z,95755.91
2023-09-17T09:53:34.984Z,95760.19
2023-09-17T09:54:37.879Z,95756.16
2023-09-17T09:55:40.098Z,95756.16
2023-09-17T09:56:43.193Z,95756.16
2023-09-17T09:57:46.923Z,95757.66
2023-09-17T09:58:51.098Z,95756.41
2023-09-17T09:59:53.203Z,95761.47
2023-09-17T10:00:56.303Z,95755.91
2023-09-17T10:01:58.451Z,95749.56
2023-09-17T10:03:00.681Z,95754.63
2023-09-17T10:04:06.390Z,95754.63
2023-09-17T10:05:11.447Z,95753.38
2023-09-17T10:06:14.609Z,95759.22
2023-09-17T10:07:18.576Z,95755.13
2023-09-17T10:08:24.171Z,95752.59
2023-09-17T10:09:26.629Z,95754.38
2023-09-17T10:10:29.567Z,95753.13
2023-09-17T10:11:32.267Z,95756.91
2023-09-17T10:12:36.026Z,95749.56
2023-09-17T10:13:38.311Z,95758.19
2023-09-17T10:14:42.926Z,95749.28
2023-09-17T10:15:45.064Z,95746.50
2023-09-17T10:16:49.013Z,95750.31
2023-09-17T10:17:51.383Z,95744.22
2023-09-17T10:18:58.261Z,95745.00
2023-09-17T10:20:01.615Z,95747.78
2023-09-17T10:21:05.828Z,95737.38
2023-09-17T10:22:10.444Z,95742.19
2023-09-17T10:23:16.473Z,95735.34
2023-09-17T10:24:20.512Z,95733.28
2023-09-17T10:25:25.600Z,95728.47
2023-09-17T10:26:33.904Z,95734.06
2023-09-17T10:27:38.750Z,95737.09
2023-09-17T10:28:41.835Z,95738.63
2023-09-17T10:29:48.370Z,95740.69
2023-09-17T10:30:52.431Z,95741.44
2023-09-17T10:31:57.292Z,95739.38
2023-09-17T10:33:00.047Z,95749.81
2023-09-17T10:34:04.630Z,95748.53
2023-09-17T10:35:08.375Z,95741.44
2023-09-17T10:36:11.834Z,95738.63
2023-09-17T10:37:17.785Z,95740.69
2023-09-17T10:38:23.695Z,95741.44
2023-09-17T10:39:28.501Z,95741.44
2023-09-17T10:40:32.756Z,95738.88
2023-09-17T10:41:38.076Z,95746.25
2023-09-17T10:42:41.768Z,95738.41
2023-09-17T10:43:46.782Z,95741.44
2023-09-17T10:44:54.057Z,95736.88
2023-09-17T10:45:57.671Z,95735.59
2023-09-17T10:47:03.547Z,95734.84
2023-09-17T10:48:07.549Z,95723.41
2023-09-17T10:49:12.388Z,95720.63
2023-09-17T10:50:16.270Z,95721.38
2023-09-17T10:51:19.796Z,95716.56
2023-09-17T10:52:22.949Z,95716.56
2023-09-17T10:53:27.977Z,95719.34
2023-09-17T10:54:31.220Z,95716.56
2023-09-17T10:55:38.953Z,95716.56
2023-09-17T10:56:43.757Z,95720.63
2023-09-17T10:57:53.776Z,95705.38
2023-09-17T10:58:55.869Z,95701.31
2023-09-17T11:00:01.090Z,95704.34
2023-09-17T11:01:04.078Z,95708.16
2023-09-17T11:02:09.659Z,95707.66
2023-09-17T11:03:16.333Z,95709.91
2023-09-17T11:04:22.807Z,95708.66
2023-09-17T11:05:28.415Z,95704.59
2023-09-17T11:06:35.833Z,95709.41
2023-09-17T11:07:40.193Z,95701.03
2023-09-17T11:08:44.838Z,95699.75
2023-09-17T11:09:48.589Z,95702.81
2023-09-17T11:10:51.737Z,95698.75
2023-09-17T11:11:53.821Z,95698.22
2023-09-17T11:12:56.895Z,95697.72
2023-09-17T11:13:59.249Z,95699.25
2023-09-17T11:15:02.335Z,95697.22
2023-09-17T11:16:04.434Z,95692.38
2023-09-17T11:17:11.455Z,95693.88
2023-09-17T11:18:17.751Z,95696.69
2023-09-17T11:19:23.598Z,95694.91
2023-09-17T11:20:25.907Z,95695.69
2023-09-17T11:21:29.069Z,95697.44
2023-09-17T11:22:36.820Z,95703.28
2023-09-17T11:23:48.067Z,95699.97
2023-09-17T11:24:51.530Z,95702.25
2023-09-17T11:25:57.801Z,95701.97
2023-09-17T11:27:02.427Z,95705.53
2023-09-17T11:28:12.908Z,95704.28
2023-09-17T11:29:15.935Z,95711.38
2023-09-17T11:30:20.520Z,95699.94
2023-09-17T11:31:24.487Z,95705.50
2023-09-17T11:32:27.514Z,95699.41
2023-09-17T11:33:30.861Z,95704.47
2023-09-17T11:34:35.258Z,95704.47
2023-09-17T11:35:40.764Z,95713.88
2023-09-17T11:36:42.684Z,95707.53
2023-09-17T11:37:45.946Z,95706.78
2023-09-17T11:38:48.778Z,95704.50
2023-09-17T11:39:53.984Z,95696.09
2023-09-17T11:41:03.847Z,95709.31
2023-09-17T11:42:08.565Z,95698.91
2023-09-17T11:43:15.029Z,95702.16
2023-09-17T11:44:17.334Z,95705.94
2023-09-17T11:45:20.445Z,95693.97
2023-09-17T11:46:24.293Z,95696.50
2023-09-17T11:47:29.666Z,95698.31
2023-09-17T11:48:34.553Z,95696.75
2023-09-17T11:49:41.788Z,95689.94
2023-09-17T11:50:43.700Z,95700.34
2023-09-17T11:51:48.130Z,95704.94
2023-09-17T11:53:07.488Z,95693.28
2023-09-17T11:54:16.327Z,95700.91
2023-09-17T11:55:24.368Z,95688.19
2023-09-17T11:56:29.344Z,95692.25
2023-09-17T11:57:31.247Z,95693.78
2023-09-17T11:58:36.272Z,95691.72
2023-09-17T11:59:39.356Z,95687.69
2023-09-17T12:00:42.592Z,95696.34
2023-09-17T12:01:48.394Z,95691.53
2023-09-17T12:02:51.590Z,95694.31
2023-09-17T12:03:55.273Z,95692.28
2023-09-17T12:05:00.441Z,95681.84
2023-09-17T12:06:02.553Z,95681.84
2023-09-17T12:07:10.158Z,95683.38
2023-09-17T12:08:12.729Z,95677.03
2023-09-17T12:09:22.350Z,95686.44
2023-09-17T12:10:30.244Z,95681.09
2023-09-17T12:11:33.277Z,95696.56
2023-09-17T12:12:37.042Z,95681.56
2023-09-17T12:13:39.939Z,95678.75
2023-09-17T12:14:42.617Z,95681.78
2023-09-17T12:15:45.634Z,95679.53
2023-09-17T12:16:48.759Z,95684.34
2023-09-17T12:17:52.781Z,95673.16
2023-09-17T12:19:03.760Z,95674.69
2023-09-17T12:20:34.585Z,95683.34
2023-09-17T12:21:40.648Z,95673.66
2023-09-17T12:22:55.613Z,95675.44
2023-09-17T12:23:58.610Z,95681.53
2023-09-17T12:25:07.041Z,95682.28
2023-09-17T12:26:10.400Z,95682.28
2023-09-17T12:27:26.101Z,95685.09
2023-09-17T12:28:28.940Z,95676.69
2023-09-17T12:29:31.848Z,95680.25
2023-09-17T12:30:33.901Z,95683.03